KAIK/AIK METAR and TAF weather

Enter ICAO airport designator
Station Type Date Time Source
KAIK METAR 2021/04/18 02:55 UTC NOAA

KAIK 180255Z AUTO 00000KT 10SM CLR 15/09 A2985 RMK AO2 T01470091


Station Type Date Time Source
KAIK Decoded METAR 2021/04/18 02:55 UTC NOAA

Station name not available
Apr 17, 2021 - 10:55 PM EDT / 2021.04.18 0255 UTC
Wind: Calm:0
Visibility: 10 mile(s):0
Sky conditions: clear
Temperature: 58.5 F (14.7 C)
Dew Point: 48.4 F (9.1 C)
Relative Humidity: 69%
Pressure (altimeter): 29.85 in. Hg (1010 hPa)
ob: KAIK 180255Z AUTO 00000KT 10SM CLR 15/09 A2985 RMK AO2 T01470091
cycle: 3

Station Type Date Time Source
KAIK TAF UTC NOAA

Error!

Example: see airport list